Tug "trevor" — WCP6921 — position and weather

sailwx.info

Track history (hours):
 
Tides and Currents Weather Stations Pressure Air Temp Water Temp Dewpoint Dewpoint Depression Visibility Wind Speed Wind Dir Waves Ship Positions

Tug "trevor"

Owner: WEEKS MARINE, INC., CRANFORD, NJ. More information available from US FCC via Universal Licensing System and Coast Guard Vessel Documentation Center.

Last reported at 2016-Aug-24 01:29 UTC. Time now 2016-Aug-24 02:42 UTC.
Position N 40°27' W 073°56'.

Length 21 m; draft 3 m.

Type: Towing. MMSI: 366643140.

Date/timePositionNaut miles runAvg speedWind from/ knotsBaromVisibWave heightAir tempDewpointWater temp
2016-Aug-24 01:29N 40°27' W 073°56'0 0.0
2016-Aug-24 00:31N 40°27' W 073°56'0 0.2
2016-Aug-23 21:16N 40°27' W 073°56'1 0.8
2016-Aug-23 20:33N 40°27' W 073°57'0 0.0
2016-Aug-23 16:30N 40°27' W 073°56'0 0.0
2016-Aug-23 15:33N 40°27' W 073°56'0 0.0
2016-Aug-23 14:30N 40°27' W 073°56'0 0.0
2016-Aug-23 13:29N 40°27' W 073°56'3 2.8
2016-Aug-23 12:33N 40°29' W 073°59'3 0.2
2016-Aug-23 01:22N 40°27' W 073°57'4 1.0
2016-Aug-22 21:23N 40°29' W 074°01'0 0.0
2016-Aug-22 20:34N 40°29' W 074°01'0 0.0
2016-Aug-22 19:33N 40°29' W 074°01'0 0.0
2016-Aug-22 18:31N 40°29' W 074°01'0 0.0
2016-Aug-22 16:29N 40°29' W 074°01'0 0.0
2016-Aug-22 15:30N 40°29' W 074°01'0 0.0
2016-Aug-21 18:06N 40°28' W 074°01'0 0.0
2016-Aug-21 14:04N 40°29' W 074°02'0 0.2
2016-Aug-21 13:27N 40°28' W 074°01'4 0.4
2016-Aug-21 04:25N 40°27' W 073°56'0 0.0
2016-Aug-21 02:21N 40°27' W 073°57'0 0.1
2016-Aug-21 01:33N 40°27' W 073°56'0 0.1
2016-Aug-20 23:32N 40°28' W 073°57'2 0.8
2016-Aug-20 21:31N 40°29' W 073°58'0 0.0
2016-Aug-20 20:24N 40°29' W 073°58'0 0.3
2016-Aug-20 19:19N 40°29' W 073°59'0 0.0
2016-Aug-20 14:26N 40°29' W 073°59'2 0.5
2016-Aug-20 10:20N 40°29' W 074°01'4 2.1
2016-Aug-20 08:25N 40°27' W 073°56'0 0.3
2016-Aug-20 07:32N 40°27' W 073°57'0 0.0
2016-Aug-20 04:07N 40°27' W 073°57'0 0.0
2016-Aug-20 02:27N 40°28' W 073°57'0 0.0
2016-Aug-20 01:33N 40°28' W 073°57'0 0.0
2016-Aug-20 00:33N 40°27' W 073°57'0 0.0
2016-Aug-19 23:33N 40°27' W 073°57'2 0.4
2016-Aug-19 19:28N 40°28' W 073°58'2 0.1
2016-Aug-19 06:33N 40°28' W 073°57'0 0.0
2016-Aug-18 22:33N 40°28' W 073°56'0 0.1
2016-Aug-18 19:18N 40°28' W 073°57'1 0.2
2016-Aug-18 16:07N 40°28' W 073°57'0 0.0
2016-Aug-18 14:24N 40°28' W 073°57'0 0.0
2016-Aug-18 13:07N 40°28' W 073°57'0 0.0
2016-Aug-18 12:34N 40°28' W 073°57'0 0.0
2016-Aug-18 11:33N 40°28' W 073°57'0 0.0
2016-Aug-18 10:33N 40°28' W 073°57'0 0.0
2016-Aug-18 09:33N 40°28' W 073°57'0 0.0
2016-Aug-18 08:29N 40°28' W 073°57'0 0.0
2016-Aug-18 01:21N 40°28' W 073°57'0 0.0
2016-Aug-18 00:31N 40°28' W 073°57'0 0.0
2016-Aug-16 21:32N 40°28' W 073°57'0 0.1
2016-Aug-16 20:33N 40°28' W 073°57'0 0.0
2016-Aug-16 19:34N 40°28' W 073°57'0 0.0
2016-Aug-16 18:33N 40°28' W 073°57'1 0.1
2016-Aug-16 14:26N 40°28' W 073°57'1 0.3
2016-Aug-16 12:33N 40°28' W 073°57'0 0.0
2016-Aug-16 11:33N 40°28' W 073°57'0 0.0
2016-Aug-16 10:33N 40°28' W 073°57'0 0.1
2016-Aug-16 09:33N 40°28' W 073°57'0 0.1
2016-Aug-16 08:33N 40°28' W 073°57'0 0.0
2016-Aug-15 23:24N 40°28' W 073°57'0 0.1
2016-Aug-15 22:32N 40°28' W 073°57'0 0.0
2016-Aug-15 18:33N 40°28' W 073°57'0 0.0
2016-Aug-15 13:23N 40°28' W 073°57'0 0.1
2016-Aug-15 09:14N 40°28' W 073°57'5 4.3
2016-Aug-15 08:04N 40°31' W 074°02'5 9.4
2016-Aug-15 07:33N 40°36' W 074°03'4 1.2
2016-Aug-15 04:08N 40°39' W 074°07'0 0.0
2016-Aug-15 03:32N 40°39' W 074°07'0 0.0
2016-Aug-15 02:24N 40°39' W 074°07'2 2.7
2016-Aug-15 01:33N 40°41' W 074°05'4 4.3
2016-Aug-15 00:33N 40°36' W 074°03'9 0.8
2016-Aug-14 12:33N 40°28' W 073°57'3 0.3
2016-Aug-14 02:27N 40°29' W 074°01'  
Track history (hours):
 
Tides and Currents Weather Stations Pressure Air Temp Water Temp Dewpoint Dewpoint Depression Visibility Wind Speed Wind Dir Waves Ship Positions

Tug "trevor"

Owner: WEEKS MARINE, INC., CRANFORD, NJ. More information available from US FCC via Universal Licensing System and Coast Guard Vessel Documentation Center.

Last reported at 2016-Aug-24 01:29 UTC. Time now 2016-Aug-24 02:42 UTC.
Position N 40°27' W 073°56'.

Length 21 m; draft 3 m.

Type: Towing. MMSI: 366643140.

Date/timePositionNaut miles runAvg speedWind from/ knotsBaromVisibWave heightAir tempDewpointWater temp
2016-Aug-24 01:29N 40°27' W 073°56'0 0.0
2016-Aug-24 00:31N 40°27' W 073°56'0 0.2
2016-Aug-23 21:16N 40°27' W 073°56'1 0.8
2016-Aug-23 20:33N 40°27' W 073°57'0 0.0
2016-Aug-23 16:30N 40°27' W 073°56'0 0.0
2016-Aug-23 15:33N 40°27' W 073°56'0 0.0
2016-Aug-23 14:30N 40°27' W 073°56'0 0.0
2016-Aug-23 13:29N 40°27' W 073°56'3 2.8
2016-Aug-23 12:33N 40°29' W 073°59'3 0.2
2016-Aug-23 01:22N 40°27' W 073°57'4 1.0
2016-Aug-22 21:23N 40°29' W 074°01'0 0.0
2016-Aug-22 20:34N 40°29' W 074°01'0 0.0
2016-Aug-22 19:33N 40°29' W 074°01'0 0.0
2016-Aug-22 18:31N 40°29' W 074°01'0 0.0
2016-Aug-22 16:29N 40°29' W 074°01'0 0.0
2016-Aug-22 15:30N 40°29' W 074°01'0 0.0
2016-Aug-21 18:06N 40°28' W 074°01'0 0.0
2016-Aug-21 14:04N 40°29' W 074°02'0 0.2
2016-Aug-21 13:27N 40°28' W 074°01'4 0.4
2016-Aug-21 04:25N 40°27' W 073°56'0 0.0
2016-Aug-21 02:21N 40°27' W 073°57'0 0.1
2016-Aug-21 01:33N 40°27' W 073°56'0 0.1
2016-Aug-20 23:32N 40°28' W 073°57'2 0.8
2016-Aug-20 21:31N 40°29' W 073°58'0 0.0
2016-Aug-20 20:24N 40°29' W 073°58'0 0.3
2016-Aug-20 19:19N 40°29' W 073°59'0 0.0
2016-Aug-20 14:26N 40°29' W 073°59'2 0.5
2016-Aug-20 10:20N 40°29' W 074°01'4 2.1
2016-Aug-20 08:25N 40°27' W 073°56'0 0.3
2016-Aug-20 07:32N 40°27' W 073°57'0 0.0
2016-Aug-20 04:07N 40°27' W 073°57'0 0.0
2016-Aug-20 02:27N 40°28' W 073°57'0 0.0
2016-Aug-20 01:33N 40°28' W 073°57'0 0.0
2016-Aug-20 00:33N 40°27' W 073°57'0 0.0
2016-Aug-19 23:33N 40°27' W 073°57'2 0.4
2016-Aug-19 19:28N 40°28' W 073°58'2 0.1
2016-Aug-19 06:33N 40°28' W 073°57'0 0.0
2016-Aug-18 22:33N 40°28' W 073°56'0 0.1
2016-Aug-18 19:18N 40°28' W 073°57'1 0.2
2016-Aug-18 16:07N 40°28' W 073°57'0 0.0
2016-Aug-18 14:24N 40°28' W 073°57'0 0.0
2016-Aug-18 13:07N 40°28' W 073°57'0 0.0
2016-Aug-18 12:34N 40°28' W 073°57'0 0.0
2016-Aug-18 11:33N 40°28' W 073°57'0 0.0
2016-Aug-18 10:33N 40°28' W 073°57'0 0.0
2016-Aug-18 09:33N 40°28' W 073°57'0 0.0
2016-Aug-18 08:29N 40°28' W 073°57'0 0.0
2016-Aug-18 01:21N 40°28' W 073°57'0 0.0
2016-Aug-18 00:31N 40°28' W 073°57'0 0.0
2016-Aug-16 21:32N 40°28' W 073°57'0 0.1
2016-Aug-16 20:33N 40°28' W 073°57'0 0.0
2016-Aug-16 19:34N 40°28' W 073°57'0 0.0
2016-Aug-16 18:33N 40°28' W 073°57'1 0.1
2016-Aug-16 14:26N 40°28' W 073°57'1 0.3
2016-Aug-16 12:33N 40°28' W 073°57'0 0.0
2016-Aug-16 11:33N 40°28' W 073°57'0 0.0
2016-Aug-16 10:33N 40°28' W 073°57'0 0.1
2016-Aug-16 09:33N 40°28' W 073°57'0 0.1
2016-Aug-16 08:33N 40°28' W 073°57'0 0.0
2016-Aug-15 23:24N 40°28' W 073°57'0 0.1
2016-Aug-15 22:32N 40°28' W 073°57'0 0.0
2016-Aug-15 18:33N 40°28' W 073°57'0 0.0
2016-Aug-15 13:23N 40°28' W 073°57'0 0.1
2016-Aug-15 09:14N 40°28' W 073°57'5 4.3
2016-Aug-15 08:04N 40°31' W 074°02'5 9.4
2016-Aug-15 07:33N 40°36' W 074°03'4 1.2
2016-Aug-15 04:08N 40°39' W 074°07'0 0.0
2016-Aug-15 03:32N 40°39' W 074°07'0 0.0
2016-Aug-15 02:24N 40°39' W 074°07'2 2.7
2016-Aug-15 01:33N 40°41' W 074°05'4 4.3
2016-Aug-15 00:33N 40°36' W 074°03'9 0.8
2016-Aug-14 12:33N 40°28' W 073°57'3 0.3
2016-Aug-14 02:27N 40°29' W 074°01'  

Dump ship's entire track history